Wind From: 13-12-2017 10:08 Until: 14-12-2017 06:00 warning for: Wind Level: Yellow info button

Although rather usual in this region, locally or potentially dangerous phenomena are expected. (such as local winds, summer thunderstorms, rising streams or high waves) Be aware and pay attention to the latest weather updates, especially if you carry out activities exposed to weather or close to a stream or shoreline. 


Meteo18 Weather Cam more information Meteo18 Weather Cam


Thunder radar more information blitzortung!


Rain radar more information rain snow radar


Visit our other weather sites:

Template documentation
and downloads

And another site



Weather Underground History page Text

Daily Summary for July 22, 2016 Units:  Metric    English   Both
« Previous Day
Next Day »
Daily Weekly Monthly Yearly Custom
  High: Low: Average:
Temperature: 27.2 °C 15.4 °C 21 °C
Dew Point: 19.1 °C 14.3 °C 16.2 °C
Humidity: 93 % 52 % 76 %
Wind Speed: 6.4 km/h 0.0 km/h 0.9 km/h
Wind Gust: 14.5 km/h - -
Wind:- - ENE
Pressure: 1016.8 hPa 1014.8 hPa -
Precipitation: 0.0 mm    
Historical Graphs
 
 
Tabular Data for July 22, 2016
Time Temperature Dew Point Pressure Wind Wind Speed Wind Gust Humidity Rainfall Rate (Hourly)
00:02 17.3 °C 15.1 °C 1016.1 hPa Calm     87 % 0.0 mm
00:07 17.3 °C 15.1 °C 1016.5 hPa Calm     87 % 0.0 mm
00:12 17.3 °C 15.1 °C 1016.1 hPa Calm     87 % 0.0 mm
00:17 17.2 °C 15.0 °C 1016.1 hPa Calm     87 % 0.0 mm
00:22 17.2 °C 15.0 °C 1016.1 hPa Calm     87 % 0.0 mm
00:32 17.2 °C 15.0 °C 1016.1 hPa Calm     87 % 0.0 mm
00:42 17.1 °C 15.1 °C 1015.8 hPa Calm     88 % 0.0 mm
00:47 17.0 °C 15.0 °C 1015.8 hPa Calm     88 % 0.0 mm
00:52 17.0 °C 15.2 °C 1015.8 hPa Calm     89 % 0.0 mm
00:57 17.0 °C 15.2 °C 1015.8 hPa Calm     89 % 0.0 mm
01:02 17.0 °C 15.2 °C 1015.8 hPa Calm     89 % 0.0 mm
01:07 17.0 °C 15.2 °C 1015.8 hPa Calm     89 % 0.0 mm
01:12 17.1 °C 15.3 °C 1015.8 hPa Calm     89 % 0.0 mm
01:17 17.2 °C 15.2 °C 1015.8 hPa Calm     88 % 0.0 mm
01:22 17.3 °C 15.3 °C 1015.8 hPa Calm     88 % 0.0 mm
01:32 17.2 °C 15.0 °C 1015.8 hPa Calm     87 % 0.0 mm
01:37 17.1 °C 15.1 °C 1015.8 hPa Calm     88 % 0.0 mm
01:42 17.0 °C 15.0 °C 1015.8 hPa Calm     88 % 0.0 mm
01:47 16.9 °C 14.9 °C 1015.8 hPa Calm     88 % 0.0 mm
01:52 16.9 °C 14.9 °C 1015.8 hPa Calm     88 % 0.0 mm
01:57 16.9 °C 15.1 °C 1015.8 hPa Calm     89 % 0.0 mm
02:02 16.9 °C 15.1 °C 1015.8 hPa Calm     89 % 0.0 mm
02:07 16.9 °C 15.1 °C 1015.8 hPa Calm     89 % 0.0 mm
02:12 16.9 °C 15.1 °C 1015.8 hPa Calm     89 % 0.0 mm
02:17 16.8 °C 15.0 °C 1015.8 hPa Calm     89 % 0.0 mm
02:22 16.8 °C 15.0 °C 1015.8 hPa Calm     89 % 0.0 mm
02:27 16.7 °C 14.9 °C 1015.5 hPa Calm     89 % 0.0 mm
02:32 16.6 °C 15.0 °C 1015.5 hPa Calm     90 % 0.0 mm
02:37 16.5 °C 14.9 °C 1015.5 hPa Calm     90 % 0.0 mm
02:42 16.4 °C 14.9 °C 1015.5 hPa Calm     91 % 0.0 mm
02:47 16.6 °C 15.1 °C 1015.5 hPa Calm     91 % 0.0 mm
02:52 16.6 °C 15.1 °C 1015.5 hPa Calm     91 % 0.0 mm
03:02 16.5 °C 15.0 °C 1015.5 hPa Calm     91 % 0.0 mm
03:07 16.5 °C 15.0 °C 1015.5 hPa Calm     91 % 0.0 mm
03:12 16.4 °C 14.9 °C 1015.5 hPa Calm     91 % 0.0 mm
03:17 16.4 °C 14.9 °C 1015.5 hPa Calm     91 % 0.0 mm
03:22 16.5 °C 15.0 °C 1015.1 hPa Calm     91 % 0.0 mm
03:32 16.7 °C 15.2 °C 1015.1 hPa Calm     91 % 0.0 mm
03:37 16.7 °C 15.2 °C 1015.1 hPa Calm     91 % 0.0 mm
03:42 16.7 °C 15.2 °C 1015.1 hPa Calm     91 % 0.0 mm
03:47 16.6 °C 15.1 °C 1014.8 hPa Calm     91 % 0.0 mm
03:57 16.5 °C 15.0 °C 1014.8 hPa Calm     91 % 0.0 mm
04:02 16.6 °C 15.1 °C 1015.1 hPa Calm     91 % 0.0 mm
04:12 16.6 °C 15.1 °C 1014.8 hPa Calm     91 % 0.0 mm
04:17 16.5 °C 15.0 °C 1014.8 hPa Calm     91 % 0.0 mm
04:22 16.4 °C 14.8 °C 1014.8 hPa Calm     90 % 0.0 mm
04:27 16.3 °C 14.8 °C 1014.8 hPa Calm     91 % 0.0 mm
04:32 16.2 °C 14.7 °C 1014.8 hPa Calm     91 % 0.0 mm
04:37 16.2 °C 14.7 °C 1014.8 hPa Calm     91 % 0.0 mm
04:42 16.2 °C 14.7 °C 1014.8 hPa Calm     91 % 0.0 mm
04:47 16.2 °C 14.7 °C 1014.8 hPa Calm     91 % 0.0 mm
04:52 16.1 °C 14.6 °C 1014.8 hPa Calm     91 % 0.0 mm
05:02 16.1 °C 14.8 °C 1014.8 hPa Calm     92 % 0.0 mm
05:12 16.1 °C 14.8 °C 1014.8 hPa Calm     92 % 0.0 mm
05:22 16.1 °C 14.8 °C 1014.8 hPa Calm     92 % 0.0 mm
05:32 16.0 °C 14.7 °C 1014.8 hPa Calm     92 % 0.0 mm
05:42 15.8 °C 14.5 °C 1014.8 hPa Calm     92 % 0.0 mm
05:52 15.6 °C 14.3 °C 1014.8 hPa Calm     92 % 0.0 mm
06:02 15.6 °C 14.5 °C 1015.1 hPa Calm     93 % 0.0 mm
06:07 15.6 °C 14.5 °C 1015.1 hPa Calm     93 % 0.0 mm
06:12 15.6 °C 14.5 °C 1015.1 hPa Calm     93 % 0.0 mm
06:17 15.6 °C 14.5 °C 1014.8 hPa Calm     93 % 0.0 mm
06:22 15.6 °C 14.5 °C 1014.8 hPa Calm     93 % 0.0 mm
06:32 15.5 °C 14.4 °C 1014.8 hPa Calm     93 % 0.0 mm
06:42 15.4 °C 14.3 °C 1014.8 hPa Calm     93 % 0.0 mm
06:52 15.5 °C 14.4 °C 1014.8 hPa Calm     93 % 0.0 mm
07:02 15.7 °C 14.6 °C 1014.8 hPa Calm     93 % 0.0 mm
07:12 15.8 °C 14.7 °C 1014.8 hPa Calm     93 % 0.0 mm
07:17 15.9 °C 14.8 °C 1015.1 hPa Calm     93 % 0.0 mm
07:22 15.9 °C 14.6 °C 1015.1 hPa Calm     92 % 0.0 mm
07:32 15.9 °C 14.6 °C 1015.1 hPa Calm     92 % 0.0 mm
07:42 16.1 °C 15.0 °C 1015.1 hPa Calm     93 % 0.0 mm
07:47 16.1 °C 15.0 °C 1015.1 hPa Calm     93 % 0.0 mm
07:52 16.2 °C 14.9 °C 1015.1 hPa Calm     92 % 0.0 mm
07:57 16.3 °C 15.0 °C 1015.1 hPa Calm     92 % 0.0 mm
08:02 16.4 °C 15.1 °C 1015.1 hPa Calm     92 % 0.0 mm
08:12 16.7 °C 15.2 °C 1015.5 hPa Calm     91 % 0.0 mm
08:17 16.9 °C 15.4 °C 1015.5 hPa Calm     91 % 0.0 mm
08:22 17.1 °C 15.4 °C 1015.5 hPa Calm     90 % 0.0 mm
08:32 17.4 °C 15.6 °C 1015.5 hPa Calm     89 % 0.0 mm
08:37 17.6 °C 15.8 °C 1015.5 hPa Calm     89 % 0.0 mm
08:42 17.8 °C 16.0 °C 1015.5 hPa Calm     89 % 0.0 mm
08:52 18.4 °C 16.6 °C 1015.5 hPa Calm     89 % 0.0 mm
08:57 18.7 °C 16.5 °C 1015.5 hPa Calm   1.6 km/h 87 % 0.0 mm
09:02 18.9 °C 16.7 °C 1015.5 hPa Calm   1.6 km/h 87 % 0.0 mm
09:12 19.0 °C 16.6 °C 1015.5 hPa Calm   3.2 km/h 86 % 0.0 mm
09:17 19.3 °C 16.9 °C 1015.5 hPa Calm   4.8 km/h 86 % 0.0 mm
09:22 19.7 °C 16.7 °C 1015.5 hPa ENE 1.6 km/h 4.8 km/h 83 % 0.0 mm
09:32 19.9 °C 16.5 °C 1015.5 hPa Calm   4.8 km/h 81 % 0.0 mm
09:42 19.8 °C 16.4 °C 1015.5 hPa NE 1.6 km/h 8.0 km/h 81 % 0.0 mm
09:47 19.8 °C 16.4 °C 1015.5 hPa ENE 1.6 km/h 8.0 km/h 81 % 0.0 mm
09:52 20.2 °C 16.8 °C 1015.5 hPa Calm   8.0 km/h 81 % 0.0 mm
10:02 21.1 °C 17.5 °C 1015.5 hPa ENE 4.8 km/h 9.7 km/h 80 % 0.0 mm
10:07 21.3 °C 17.3 °C 1015.8 hPa NE 1.6 km/h 9.7 km/h 78 % 0.0 mm
10:12 21.5 °C 17.3 °C 1015.8 hPa East 3.2 km/h 9.7 km/h 77 % 0.0 mm
10:17 21.6 °C 17.4 °C 1015.8 hPa ENE 1.6 km/h 6.4 km/h 77 % 0.0 mm
10:27 21.8 °C 17.4 °C 1015.5 hPa NE 4.8 km/h 8.0 km/h 76 % 0.0 mm
10:32 21.8 °C 17.4 °C 1015.5 hPa NE 3.2 km/h 9.7 km/h 76 % 0.0 mm
10:37 21.9 °C 17.3 °C 1015.5 hPa Calm   9.7 km/h 75 % 0.0 mm
10:42 22.1 °C 17.5 °C 1015.5 hPa ENE 3.2 km/h 9.7 km/h 75 % 0.0 mm
10:47 22.4 °C 17.5 °C 1015.5 hPa Calm   8.0 km/h 74 % 0.0 mm
10:52 22.5 °C 17.2 °C 1015.5 hPa ENE 4.8 km/h 9.7 km/h 72 % 0.0 mm
10:57 22.6 °C 17.3 °C 1015.1 hPa NE 1.6 km/h 9.7 km/h 72 % 0.0 mm
11:02 22.9 °C 17.6 °C 1015.5 hPa Calm   9.7 km/h 72 % 0.0 mm
11:12 23.3 °C 17.7 °C 1015.5 hPa NE 1.6 km/h 6.4 km/h 71 % 0.0 mm
11:17 23.5 °C 17.7 °C 1015.5 hPa East 1.6 km/h 6.4 km/h 70 % 0.0 mm
11:27 23.8 °C 17.8 °C 1015.5 hPa ENE 1.6 km/h 11.3 km/h 69 % 0.0 mm
11:32 23.7 °C 17.2 °C 1015.5 hPa NE 3.2 km/h 11.3 km/h 67 % 0.0 mm
11:42 23.6 °C 17.1 °C 1015.5 hPa Calm   9.7 km/h 67 % 0.0 mm
11:52 23.9 °C 17.4 °C 1015.8 hPa East 3.2 km/h 9.7 km/h 67 % 0.0 mm
11:57 23.9 °C 16.9 °C 1015.8 hPa NE 1.6 km/h 9.7 km/h 65 % 0.0 mm
12:02 24.1 °C 17.6 °C 1015.8 hPa Calm   9.7 km/h 67 % 0.0 mm
12:07 24.3 °C 17.8 °C 1015.8 hPa ENE 1.6 km/h 8.0 km/h 67 % 0.0 mm
12:12 24.1 °C 17.3 °C 1015.8 hPa ESE 1.6 km/h 8.0 km/h 66 % 0.0 mm
12:17 23.7 °C 17.0 °C 1015.8 hPa Calm   8.0 km/h 66 % 0.0 mm
12:22 23.8 °C 17.3 °C 1015.5 hPa Calm   8.0 km/h 67 % 0.0 mm
12:32 24.2 °C 17.7 °C 1015.5 hPa SSE 1.6 km/h 8.0 km/h 67 % 0.0 mm
12:42 24.2 °C 17.7 °C 1015.5 hPa Calm   9.7 km/h 67 % 0.0 mm
12:47 24.6 °C 17.6 °C 1015.5 hPa NE 1.6 km/h 11.3 km/h 65 % 0.0 mm
12:52 24.3 °C 18.0 °C 1015.5 hPa NNE 3.2 km/h 11.3 km/h 68 % 0.0 mm
13:02 24.3 °C 18.0 °C 1015.5 hPa ESE 1.6 km/h 11.3 km/h 68 % 0.0 mm
13:12 24.4 °C 18.1 °C 1015.5 hPa East 3.2 km/h 6.4 km/h 68 % 0.0 mm
13:17 24.3 °C 17.8 °C 1015.5 hPa NE 3.2 km/h 8.0 km/h 67 % 0.0 mm
13:22 24.0 °C 17.3 °C 1015.8 hPa NE 4.8 km/h 8.0 km/h 66 % 0.0 mm
13:27 24.2 °C 17.7 °C 1015.8 hPa ENE 3.2 km/h 12.9 km/h 67 % 0.0 mm
13:32 24.4 °C 17.9 °C 1015.8 hPa ENE 1.6 km/h 12.9 km/h 67 % 0.0 mm
13:37 25.4 °C 18.1 °C 1015.8 hPa NE 1.6 km/h 8.0 km/h 64 % 0.0 mm
13:42 26.2 °C 19.1 °C 1015.5 hPa NE 3.2 km/h 8.0 km/h 65 % 0.0 mm
13:47 25.9 °C 17.8 °C 1015.8 hPa ESE 3.2 km/h 9.7 km/h 61 % 0.0 mm
13:52 25.9 °C 17.8 °C 1015.8 hPa SE 1.6 km/h 9.7 km/h 61 % 0.0 mm
14:02 26.2 °C 18.3 °C 1015.8 hPa ENE 1.6 km/h 12.9 km/h 62 % 0.0 mm
14:07 26.6 °C 18.7 °C 1015.8 hPa NE 3.2 km/h 12.9 km/h 62 % 0.0 mm
14:12 26.6 °C 17.7 °C 1015.8 hPa NE 3.2 km/h 12.9 km/h 58 % 0.0 mm
14:17 25.7 °C 16.8 °C 1015.8 hPa ESE 3.2 km/h 9.7 km/h 58 % 0.0 mm
14:22 25.8 °C 17.2 °C 1015.8 hPa Calm   9.7 km/h 59 % 0.0 mm
14:27 26.2 °C 17.8 °C 1015.8 hPa Calm   9.7 km/h 60 % 0.0 mm
14:32 25.9 °C 17.8 °C 1015.8 hPa NE 3.2 km/h 9.7 km/h 61 % 0.0 mm
14:42 26.1 °C 17.5 °C 1015.8 hPa East 3.2 km/h 9.7 km/h 59 % 0.0 mm
14:47 26.7 °C 17.7 °C 1015.8 hPa Calm   9.7 km/h 58 % 0.0 mm
14:52 26.9 °C 17.7 °C 1015.8 hPa Calm   9.7 km/h 57 % 0.0 mm
14:57 26.6 °C 17.9 °C 1016.1 hPa Calm   9.7 km/h 59 % 0.0 mm
15:02 26.7 °C 17.2 °C 1015.8 hPa ENE 1.6 km/h 9.7 km/h 56 % 0.0 mm
15:12 27.0 °C 17.2 °C 1015.8 hPa NE 4.8 km/h 14.5 km/h 55 % 0.0 mm
15:17 27.2 °C 17.4 °C 1015.8 hPa ESE 3.2 km/h 14.5 km/h 55 % 0.0 mm
15:22 27.1 °C 17.0 °C 1015.8 hPa ENE 6.4 km/h 12.9 km/h 54 % 0.0 mm
15:27 26.7 °C 17.2 °C 1015.8 hPa SW 1.6 km/h 9.7 km/h 56 % 0.0 mm
15:32 26.8 °C 17.3 °C 1015.8 hPa ENE 3.2 km/h 9.7 km/h 56 % 0.0 mm
15:42 26.8 °C 17.0 °C 1015.8 hPa Calm   9.7 km/h 55 % 0.0 mm
15:47 26.7 °C 16.9 °C 1015.8 hPa NE 3.2 km/h 11.3 km/h 55 % 0.0 mm
15:52 26.7 °C 17.5 °C 1015.8 hPa NE 4.8 km/h 11.3 km/h 57 % 0.0 mm
15:57 26.5 °C 16.7 °C 1015.8 hPa ENE 4.8 km/h 11.3 km/h 55 % 0.0 mm
16:02 26.6 °C 16.8 °C 1015.8 hPa Calm   11.3 km/h 55 % 0.0 mm
16:12 27.0 °C 16.3 °C 1015.5 hPa NE 1.6 km/h 9.7 km/h 52 % 0.0 mm
16:17 26.9 °C 16.5 °C 1015.8 hPa East 1.6 km/h 9.7 km/h 53 % 0.0 mm
16:22 27.0 °C 16.6 °C 1015.8 hPa ESE 4.8 km/h 9.7 km/h 53 % 0.0 mm
16:32 26.7 °C 16.9 °C 1015.8 hPa Calm   11.3 km/h 55 % 0.0 mm
16:37 26.6 °C 16.8 °C 1015.8 hPa NE 6.4 km/h 12.9 km/h 55 % 0.0 mm
16:42 26.5 °C 16.1 °C 1015.8 hPa SE 4.8 km/h 12.9 km/h 53 % 0.0 mm
16:47 26.1 °C 15.8 °C 1015.8 hPa Calm   11.3 km/h 53 % 0.0 mm
16:52 26.3 °C 16.8 °C 1015.5 hPa Calm   11.3 km/h 56 % 0.0 mm
16:57 26.3 °C 16.0 °C 1015.5 hPa NE 3.2 km/h 11.3 km/h 53 % 0.0 mm
17:02 26.0 °C 16.3 °C 1015.5 hPa ENE 6.4 km/h 11.3 km/h 55 % 0.0 mm
17:12 25.6 °C 15.6 °C 1015.8 hPa Calm   11.3 km/h 54 % 0.0 mm
17:17 25.6 °C 16.2 °C 1015.8 hPa ENE 1.6 km/h 11.3 km/h 56 % 0.0 mm
17:22 25.4 °C 15.7 °C 1015.8 hPa NE 1.6 km/h 11.3 km/h 55 % 0.0 mm
17:32 25.1 °C 15.7 °C 1015.8 hPa ENE 1.6 km/h 6.4 km/h 56 % 0.0 mm
17:37 25.1 °C 15.7 °C 1015.8 hPa Calm   6.4 km/h 56 % 0.0 mm
17:42 25.2 °C 16.1 °C 1015.8 hPa NE 1.6 km/h 6.4 km/h 57 % 0.0 mm
17:47 25.1 °C 15.7 °C 1015.8 hPa Calm   6.4 km/h 56 % 0.0 mm
17:52 25.0 °C 15.6 °C 1015.8 hPa NE 3.2 km/h 6.4 km/h 56 % 0.0 mm
18:02 25.0 °C 15.6 °C 1015.5 hPa ENE 1.6 km/h 8.0 km/h 56 % 0.0 mm
18:12 25.2 °C 15.8 °C 1015.5 hPa NE 6.4 km/h 8.0 km/h 56 % 0.0 mm
18:17 25.2 °C 15.8 °C 1015.5 hPa ENE 3.2 km/h 8.0 km/h 56 % 0.0 mm
18:22 25.1 °C 15.7 °C 1015.5 hPa Calm   8.0 km/h 56 % 0.0 mm
18:32 25.1 °C 15.7 °C 1015.5 hPa ENE 1.6 km/h 9.7 km/h 56 % 0.0 mm
18:37 25.1 °C 15.7 °C 1015.5 hPa NE 1.6 km/h 8.0 km/h 56 % 0.0 mm
18:42 25.0 °C 15.9 °C 1015.5 hPa Calm   8.0 km/h 57 % 0.0 mm
18:47 24.9 °C 15.5 °C 1015.5 hPa NE 6.4 km/h 8.0 km/h 56 % 0.0 mm
18:52 24.9 °C 15.5 °C 1015.5 hPa Calm   8.0 km/h 56 % 0.0 mm
19:02 24.8 °C 15.7 °C 1015.5 hPa Calm   8.0 km/h 57 % 0.0 mm
19:07 24.7 °C 15.6 °C 1015.5 hPa ENE 1.6 km/h 6.4 km/h 57 % 0.0 mm
19:12 24.7 °C 15.3 °C 1015.5 hPa Calm   6.4 km/h 56 % 0.0 mm
19:22 24.7 °C 15.3 °C 1015.5 hPa Calm   8.0 km/h 56 % 0.0 mm
19:32 24.8 °C 16.0 °C 1015.5 hPa Calm   8.0 km/h 58 % 0.0 mm
19:42 24.7 °C 15.9 °C 1015.5 hPa Calm   4.8 km/h 58 % 0.0 mm
19:52 24.6 °C 16.8 °C 1015.5 hPa Calm   4.8 km/h 62 % 0.0 mm
20:02 24.3 °C 16.8 °C 1015.8 hPa Calm   3.2 km/h 63 % 0.0 mm
20:12 23.9 °C 16.9 °C 1015.8 hPa Calm   1.6 km/h 65 % 0.0 mm
20:17 23.8 °C 16.8 °C 1015.8 hPa Calm     65 % 0.0 mm
20:22 23.6 °C 17.1 °C 1016.1 hPa Calm     67 % 0.0 mm
20:32 23.3 °C 17.3 °C 1016.1 hPa Calm   1.6 km/h 69 % 0.0 mm
20:37 23.2 °C 17.4 °C 1016.1 hPa Calm   3.2 km/h 70 % 0.0 mm
20:42 23.1 °C 17.3 °C 1016.1 hPa Calm   3.2 km/h 70 % 0.0 mm
20:47 22.9 °C 17.4 °C 1016.1 hPa Calm   1.6 km/h 71 % 0.0 mm
20:57 22.7 °C 17.4 °C 1016.1 hPa Calm   1.6 km/h 72 % 0.0 mm
21:02 22.6 °C 17.3 °C 1016.1 hPa Calm   1.6 km/h 72 % 0.0 mm
21:12 22.3 °C 17.4 °C 1016.1 hPa Calm     74 % 0.0 mm
21:22 21.9 °C 17.1 °C 1016.5 hPa Calm     74 % 0.0 mm
21:32 21.6 °C 17.2 °C 1016.1 hPa Calm   1.6 km/h 76 % 0.0 mm
21:42 21.1 °C 16.7 °C 1016.5 hPa Calm   1.6 km/h 76 % 0.0 mm
21:47 20.8 °C 16.6 °C 1016.5 hPa Calm     77 % 0.0 mm
21:52 20.5 °C 16.5 °C 1016.5 hPa Calm     78 % 0.0 mm
21:57 20.3 °C 16.7 °C 1016.5 hPa Calm     80 % 0.0 mm
22:02 20.1 °C 16.7 °C 1016.8 hPa Calm     81 % 0.0 mm
22:07 20.0 °C 16.6 °C 1016.8 hPa Calm     81 % 0.0 mm
22:12 19.8 °C 16.4 °C 1016.8 hPa Calm     81 % 0.0 mm
22:17 19.8 °C 16.4 °C 1016.8 hPa Calm     81 % 0.0 mm
22:22 19.7 °C 16.5 °C 1016.8 hPa Calm     82 % 0.0 mm
22:32 19.9 °C 16.7 °C 1016.8 hPa Calm     82 % 0.0 mm
22:37 19.9 °C 16.5 °C 1016.8 hPa Calm     81 % 0.0 mm
22:42 20.0 °C 16.8 °C 1016.8 hPa Calm     82 % 0.0 mm
22:52 19.8 °C 16.6 °C 1016.8 hPa Calm     82 % 0.0 mm
23:02 19.7 °C 16.7 °C 1016.8 hPa Calm     83 % 0.0 mm
23:12 19.7 °C 16.9 °C 1016.8 hPa Calm     84 % 0.0 mm
23:17 19.7 °C 16.9 °C 1016.8 hPa Calm     84 % 0.0 mm
23:22 19.7 °C 16.9 °C 1016.8 hPa Calm     84 % 0.0 mm
23:27 19.7 °C 16.9 °C 1016.8 hPa Calm     84 % 0.0 mm
23:32 19.6 °C 16.8 °C 1016.8 hPa Calm     84 % 0.0 mm
23:37 19.6 °C 17.0 °C 1016.8 hPa Calm     85 % 0.0 mm
23:42 19.5 °C 16.9 °C 1016.8 hPa Calm     85 % 0.0 mm
23:52 19.5 °C 16.9 °C 1016.8 hPa Calm     85 % 0.0 mm
23:57 19.5 °C 16.9 °C 1016.8 hPa Calm     85 % 0.0 mm
Meteo18
Compliments of Weather Underground - 4 mb

Script developed by  Jim McMurry - jmcmurry@mwt.net Adapted for the template by  Wim van der Kuil - Leuven-Template.eu

You find our weather info also at:

European Weather Network

Weather Underground

Equipment we use:

Weather-station
Davis Vue

Weather-program
Meteohub

Weather-server
Raspberry PI 2 B+

Provider
1 and 1

Davis Vue

Meteohub

Raspberry PI 2 B+

1 and 1